Time;durP1;ratioP1;P1;durP2;ratioP2;P2;SDS_P1;SDS_P2;PMS_P1;PMS_P2;Temp;Humidity;BMP_temperature;BMP_pressure;BME280_temperature;BME280_humidity;BME280_pressure;Samples;Min_cycle;Max_cycle;Signal;HPM_P1;HPM_P2
2021/12/05 00:21:59;;;;;;;5.05;2.28;;;-6.70;99.90;;;;;;5092100;28;20022;-68
2021/12/05 00:24:28;;;;;;;5.22;2.35;;;-6.80;99.90;;;;;;5091946;28;20396;-68
2021/12/05 00:27:03;;;;;;;4.43;2.35;;;-6.80;99.90;;;;;;5091721;28;20031;-68
2021/12/05 01:11:49;;;;;;;4.95;2.40;;;-7.00;99.90;;;;;;5095294;28;20097;-67
2021/12/05 01:16:26;;;;;;;4.03;2.33;;;-7.00;99.90;;;;;;5095308;28;20020;-67
2021/12/05 01:18:52;;;;;;;4.80;2.08;;;-7.00;99.90;;;;;;5095082;28;20030;-67
2021/12/05 01:21:21;;;;;;;4.57;2.78;;;-7.00;99.90;;;;;;5095058;28;20098;-67
2021/12/05 01:24:02;;;;;;;4.97;2.33;;;-6.90;99.90;;;;;;5095200;28;20038;-67
2021/12/05 01:29:07;;;;;;;6.28;2.83;;;-6.90;99.90;;;;;;5094832;28;20460;-68
2021/12/05 01:34:23;;;;;;;6.90;2.60;;;-6.90;99.90;;;;;;5095095;28;20106;-68
2021/12/05 01:37:05;;;;;;;4.00;2.28;;;-6.80;99.90;;;;;;5095022;28;20024;-67
2021/12/05 02:01:09;;;;;;;5.68;2.60;;;-6.90;99.90;;;;;;5094021;28;20085;-65
2021/12/05 02:56:18;;;;;;;4.47;2.45;;;-7.10;99.90;;;;;;5093007;28;20043;-66
2021/12/05 02:58:53;;;;;;;3.22;2.10;;;-7.20;99.90;;;;;;5093257;28;20035;-66
2021/12/05 03:03:58;;;;;;;5.60;2.75;;;-7.30;99.90;;;;;;5092272;28;20020;-66
2021/12/05 03:06:31;;;;;;;4.03;2.40;;;-7.20;99.90;;;;;;5092928;28;20511;-65
2021/12/05 03:09:07;;;;;;;4.47;2.50;;;-7.20;99.90;;;;;;5093171;28;20028;-65
2021/12/05 03:11:34;;;;;;;5.25;2.55;;;-7.10;99.90;;;;;;5092753;28;20039;-66
2021/12/05 03:14:00;;;;;;;3.30;2.33;;;-7.10;99.90;;;;;;5093067;28;20074;-67
2021/12/05 03:16:27;;;;;;;3.17;2.38;;;-7.10;99.90;;;;;;5092723;28;20527;-66
2021/12/05 03:18:53;;;;;;;6.13;2.20;;;-7.10;99.90;;;;;;5092969;28;20035;-66
2021/12/05 03:21:20;;;;;;;4.63;2.42;;;-7.10;99.90;;;;;;5092629;28;20093;-66
2021/12/05 03:23:48;;;;;;;5.15;2.35;;;-7.10;99.90;;;;;;5092820;28;20103;-65
2021/12/05 03:26:19;;;;;;;4.82;2.60;;;-7.10;99.90;;;;;;5092647;28;20114;-65
2021/12/05 03:28:45;;;;;;;6.70;2.42;;;-7.10;99.90;;;;;;5092730;28;20071;-65
2021/12/05 03:31:11;;;;;;;3.55;2.40;;;-7.10;99.90;;;;;;5092904;28;20479;-65
2021/12/05 03:33:38;;;;;;;8.25;2.50;;;-7.10;99.90;;;;;;5092240;28;20115;-65
2021/12/05 03:36:06;;;;;;;7.85;2.45;;;-7.10;99.90;;;;;;5091294;28;20044;-65
2021/12/05 03:38:33;;;;;;;7.80;2.55;;;-7.10;99.90;;;;;;5092185;28;20028;-65
2021/12/05 03:40:59;;;;;;;3.13;2.55;;;-7.20;99.90;;;;;;5091070;28;20458;-66
2021/12/05 03:43:25;;;;;;;4.47;2.58;;;-7.20;99.90;;;;;;5092123;28;20112;-65
2021/12/05 03:45:54;;;;;;;3.72;2.35;;;-7.20;99.90;;;;;;5092611;28;20052;-65
2021/12/05 03:48:22;;;;;;;3.05;2.38;;;-7.20;99.90;;;;;;5092351;28;20055;-66
2021/12/05 03:50:49;;;;;;;3.33;2.35;;;-7.20;99.90;;;;;;5092286;28;20028;-66
2021/12/05 03:53:16;;;;;;;6.90;2.83;;;-7.30;99.90;;;;;;5092504;28;20104;-66
2021/12/05 03:55:45;;;;;;;5.15;2.40;;;-7.30;99.90;;;;;;5092543;28;20388;-66
2021/12/05 03:58:12;;;;;;;5.43;2.20;;;-7.30;99.90;;;;;;5092228;28;20103;-66
2021/12/05 04:00:47;;;;;;;5.28;2.70;;;-7.40;99.90;;;;;;5090854;28;20533;-66
2021/12/05 04:03:15;;;;;;;4.03;2.58;;;-7.40;99.90;;;;;;5092484;28;20103;-66
2021/12/05 04:05:42;;;;;;;4.25;2.65;;;-7.30;99.90;;;;;;5092376;28;20428;-66
2021/12/05 04:08:11;;;;;;;4.85;2.72;;;-7.40;99.90;;;;;;5092242;28;20380;-66
2021/12/05 04:10:41;;;;;;;5.40;2.47;;;-7.30;99.90;;;;;;5091942;28;20032;-66
2021/12/05 04:13:06;;;;;;;5.40;2.30;;;-7.30;99.90;;;;;;5091978;28;20022;-66
2021/12/05 04:15:32;;;;;;;3.70;2.55;;;-7.30;99.90;;;;;;5092128;28;20110;-66
2021/12/05 04:17:58;;;;;;;5.53;2.70;;;-7.30;99.90;;;;;;5091880;28;20368;-66
2021/12/05 04:20:25;;;;;;;4.05;2.40;;;-7.30;99.90;;;;;;5092055;28;20031;-66
2021/12/05 04:22:52;;;;;;;5.30;2.38;;;-7.40;99.90;;;;;;5091861;28;20016;-66
2021/12/05 04:25:18;;;;;;;3.72;2.38;;;-7.30;99.90;;;;;;5090456;28;20036;-66
2021/12/05 04:27:47;;;;;;;6.35;2.40;;;-7.30;99.90;;;;;;5091736;28;20031;-66
2021/12/05 04:30:15;;;;;;;2.35;2.05;;;-7.20;99.90;;;;;;5091777;28;20492;-66
2021/12/05 04:32:41;;;;;;;3.60;2.35;;;-7.20;99.90;;;;;;5091884;28;20028;-66
2021/12/05 04:35:08;;;;;;;4.82;2.50;;;-7.30;99.90;;;;;;5091719;28;20487;-66
2021/12/05 04:37:34;;;;;;;5.85;2.67;;;-7.30;99.90;;;;;;5091852;28;20111;-66
2021/12/05 04:39:59;;;;;;;4.07;2.85;;;-7.40;99.90;;;;;;5091951;28;20646;-66
2021/12/05 04:42:25;;;;;;;5.15;2.50;;;-7.30;99.90;;;;;;5094991;28;20479;-66
2021/12/05 04:44:51;;;;;;;2.42;1.90;;;-7.30;99.90;;;;;;5095846;28;20028;-66
2021/12/05 04:47:17;;;;;;;3.55;1.88;;;-7.30;99.90;;;;;;5095691;28;20059;-66
2021/12/05 04:49:44;;;;;;;4.35;2.33;;;-7.30;99.90;;;;;;5095529;28;20035;-66
2021/12/05 04:52:12;;;;;;;2.67;2.20;;;-7.40;99.90;;;;;;5095574;28;20165;-66
2021/12/05 04:54:39;;;;;;;3.95;2.25;;;-7.30;99.90;;;;;;5095389;28;20024;-66
2021/12/05 04:57:05;;;;;;;5.13;2.10;;;-7.40;99.90;;;;;;5095478;28;20043;-66
2021/12/05 04:59:35;;;;;;;4.60;2.65;;;-7.40;99.90;;;;;;5095277;28;20407;-66
2021/12/05 05:02:02;;;;;;;7.43;2.58;;;-7.40;99.90;;;;;;5095465;28;20028;-66
2021/12/05 05:04:29;;;;;;;2.88;2.20;;;-7.40;99.90;;;;;;5095124;28;20028;-66
2021/12/05 05:07:03;;;;;;;3.42;2.20;;;-7.30;99.90;;;;;;5095658;28;20032;-66
2021/12/05 05:09:29;;;;;;;4.60;2.40;;;-7.30;99.90;;;;;;5095020;28;20425;-66
2021/12/05 05:11:55;;;;;;;4.00;2.38;;;-7.30;99.90;;;;;;5095256;28;20046;-66
2021/12/05 05:14:22;;;;;;;3.25;2.38;;;-7.30;99.90;;;;;;5094970;28;20039;-66
2021/12/05 05:16:53;;;;;;;4.38;2.15;;;-7.20;99.90;;;;;;5095255;28;20020;-66
2021/12/05 05:19:23;;;;;;;5.07;2.42;;;-7.20;99.90;;;;;;5095119;28;20016;-66
2021/12/05 05:22:03;;;;;;;3.65;2.47;;;-7.20;99.90;;;;;;5095106;28;20032;-66
2021/12/05 05:51:22;;;;;;;7.60;3.00;;;-5.80;99.90;;;;;;5031346;28;20117;-66
2021/12/05 05:53:48;;;;;;;3.45;2.42;;;-6.30;99.90;;;;;;5028911;28;20061;-66
2021/12/05 05:56:20;;;;;;;4.18;2.60;;;-6.60;99.90;;;;;;5065301;28;20048;-67
2021/12/05 05:59:13;;;;;;;6.40;2.15;;;-6.70;99.90;;;;;;5095191;28;20068;-67
2021/12/05 06:04:03;;;;;;;6.20;2.47;;;-7.10;99.90;;;;;;5093966;28;20491;-63
2021/12/05 06:06:30;;;;;;;6.53;2.72;;;-7.20;99.90;;;;;;5098798;28;20024;-66
2021/12/05 06:08:57;;;;;;;4.07;2.40;;;-7.20;99.90;;;;;;5093849;28;20059;-64
2021/12/05 06:11:23;;;;;;;5.68;2.55;;;-7.30;99.90;;;;;;5113491;28;20107;-63
2021/12/05 06:13:50;;;;;;;3.47;2.40;;;-7.30;99.90;;;;;;5113416;28;20103;-63
2021/12/05 06:16:17;;;;;;;4.60;2.10;;;-7.40;99.90;;;;;;5113517;28;20053;-63
2021/12/05 06:18:44;;;;;;;3.60;2.15;;;-7.40;99.90;;;;;;5097099;28;20114;-63
2021/12/05 06:21:10;;;;;;;5.03;2.33;;;-7.40;99.90;;;;;;5093583;28;20544;-63
2021/12/05 06:23:37;;;;;;;4.32;2.33;;;-7.40;99.90;;;;;;5093452;28;20065;-67
2021/12/05 06:26:05;;;;;;;5.25;2.45;;;-7.30;99.90;;;;;;5093765;28;20024;-64
2021/12/05 06:28:45;;;;;;;5.13;2.40;;;-7.30;99.90;;;;;;5093738;28;20032;-63
2021/12/05 06:31:23;;;;;;;2.40;2.13;;;-7.30;99.90;;;;;;5094063;28;20031;-66
2021/12/05 06:47:29;;;;;;;3.47;2.30;;;-7.20;99.90;;;;;;5093619;28;20127;-63
2021/12/05 06:49:55;;;;;;;7.38;2.60;;;-7.20;99.90;;;;;;5093207;28;20114;-63
2021/12/05 06:52:22;;;;;;;3.15;2.10;;;-5.20;99.90;;;;;;5093346;28;20020;-63
2021/12/05 06:54:48;;;;;;;5.55;2.35;;;-4.70;99.90;;;;;;5092967;28;20032;-63
2021/12/05 06:57:14;;;;;;;5.57;2.13;;;-5.30;99.90;;;;;;5093487;28;20361;-63
2021/12/05 06:59:41;;;;;;;5.75;2.88;;;-5.80;99.90;;;;;;5093058;28;20127;-63
2021/12/05 07:02:08;;;;;;;4.05;2.75;;;-6.20;99.90;;;;;;5093157;28;20054;-63
2021/12/05 07:07:04;;;;;;;4.72;2.10;;;-6.40;99.90;;;;;;5093069;28;20035;-63
2021/12/05 07:09:31;;;;;;;4.18;2.17;;;-6.10;99.90;;;;;;5092721;28;20028;-63
2021/12/05 07:14:43;;;;;;;3.97;2.42;;;-6.40;99.90;;;;;;5093034;28;20511;-63
2021/12/05 07:19:56;;;;;;;2.47;2.28;;;-6.80;99.90;;;;;;5092601;28;20040;-63
2021/12/05 07:22:27;;;;;;;4.78;2.22;;;-6.80;99.90;;;;;;5093027;28;20073;-63
2021/12/05 07:25:06;;;;;;;3.33;1.92;;;-6.90;99.90;;;;;;5092584;28;20078;-63
2021/12/05 07:43:47;;;;;;;3.78;2.47;;;-7.40;99.90;;;;;;5092447;28;20024;-62
2021/12/05 07:46:13;;;;;;;2.72;2.20;;;-7.40;99.90;;;;;;5092208;28;20028;-63
2021/12/05 07:48:42;;;;;;;4.43;2.08;;;-7.40;99.90;;;;;;5091845;28;20063;-63
2021/12/05 07:51:20;;;;;;;5.00;2.50;;;-7.50;99.90;;;;;;5091668;28;20020;-62
2021/12/05 07:54:09;;;;;;;4.10;2.42;;;-7.40;99.90;;;;;;5092031;28;20032;-63
2021/12/05 07:59:25;;;;;;;5.13;2.75;;;-7.40;99.90;;;;;;5092168;28;20044;-63
2021/12/05 08:15:45;;;;;;;7.05;3.08;;;-7.40;99.90;;;;;;5091139;28;20074;-62
2021/12/05 08:18:11;;;;;;;4.70;2.50;;;-7.40;99.90;;;;;;5091853;28;20024;-63
2021/12/05 08:20:41;;;;;;;7.43;2.90;;;-7.40;99.90;;;;;;5091558;28;20024;-63
2021/12/05 08:23:07;;;;;;;3.75;2.47;;;-7.50;99.90;;;;;;5091960;28;20545;-63
2021/12/05 08:25:36;;;;;;;5.85;2.60;;;-7.50;99.90;;;;;;5092054;28;20115;-62
2021/12/05 08:28:26;;;;;;;7.65;3.42;;;-7.50;99.90;;;;;;5091902;28;20058;-62
2021/12/05 08:31:03;;;;;;;5.78;2.90;;;-7.50;99.90;;;;;;5091649;28;20542;-63
2021/12/05 08:36:30;;;;;;;4.97;2.92;;;-7.00;99.90;;;;;;5092248;28;20066;-61
2021/12/05 08:39:39;;;;;;;4.95;2.47;;;-6.40;99.90;;;;;;5093016;28;20059;-62
2021/12/05 09:28:04;;;;;;;5.78;2.40;;;-7.20;99.90;;;;;;5092962;28;20082;-61
2021/12/05 09:30:44;;;;;;;3.33;2.35;;;-7.30;99.90;;;;;;5095178;28;20044;-62
2021/12/05 09:53:12;;;;;;;15.23;5.38;;;-7.60;99.90;;;;;;5094886;28;20440;-62
2021/12/05 10:08:57;;;;;;;4.68;2.42;;;-7.70;99.90;;;;;;5094176;28;20039;-61
2021/12/05 10:11:35;;;;;;;5.75;2.63;;;-6.00;99.90;;;;;;5094163;28;20115;-61
2021/12/05 10:17:31;;;;;;;10.40;5.70;;;-5.60;99.90;;;;;;5094361;28;20077;-61
2021/12/05 10:37:22;;;;;;;3.67;2.25;;;-7.10;99.90;;;;;;5093912;28;20551;-62
2021/12/05 10:40:16;;;;;;;7.55;2.20;;;-7.10;99.90;;;;;;5092667;28;20032;-63
2021/12/05 10:42:45;;;;;;;3.42;2.60;;;-7.10;99.90;;;;;;5092259;28;20364;-63
2021/12/05 10:45:19;;;;;;;3.20;2.10;;;-7.20;99.90;;;;;;5093055;28;20035;-62
2021/12/05 10:47:48;;;;;;;3.70;2.20;;;-7.40;99.90;;;;;;5092707;28;20073;-62
2021/12/05 10:50:31;;;;;;;4.95;2.30;;;-7.40;99.90;;;;;;5093310;28;20043;-62
2021/12/05 10:53:28;;;;;;;3.28;2.03;;;-7.50;99.90;;;;;;5093199;28;20172;-62
2021/12/05 10:56:13;;;;;;;5.85;2.20;;;-7.50;99.90;;;;;;5093444;28;20028;-62
2021/12/05 10:58:59;;;;;;;4.32;2.67;;;-7.40;99.90;;;;;;5093349;28;20030;-63
2021/12/05 11:01:39;;;;;;;2.88;2.42;;;-7.40;99.90;;;;;;5092832;28;20417;-63
2021/12/05 11:04:19;;;;;;;3.20;2.20;;;-7.40;99.90;;;;;;5093033;28;20547;-62
2021/12/05 11:07:17;;;;;;;5.53;2.80;;;-7.30;99.90;;;;;;5101819;28;20361;-63
2021/12/05 11:09:48;;;;;;;3.33;2.35;;;-7.30;99.90;;;;;;5092808;28;20552;-62
2021/12/05 11:12:35;;;;;;;2.80;2.15;;;-7.30;99.90;;;;;;5093003;28;20505;-62
2021/12/05 11:15:11;;;;;;;2.60;2.40;;;-7.30;99.90;;;;;;5093217;28;20074;-63
2021/12/05 11:17:43;;;;;;;4.78;2.63;;;-7.20;99.90;;;;;;5093313;28;20028;-62
2021/12/05 11:20:21;;;;;;;7.53;2.88;;;-7.20;99.90;;;;;;5092971;28;20503;-63
2021/12/05 11:22:49;;;;;;;3.17;2.22;;;-7.30;99.90;;;;;;5092919;28;20024;-62
2021/12/05 11:25:21;;;;;;;3.50;2.38;;;-7.40;99.90;;;;;;5092581;28;20120;-63
2021/12/05 11:27:50;;;;;;;5.75;2.80;;;-7.40;99.90;;;;;;5092554;28;20012;-63
2021/12/05 11:30:44;;;;;;;4.80;2.40;;;-7.40;99.90;;;;;;5092613;28;20064;-63
2021/12/05 11:33:18;;;;;;;3.83;2.42;;;-7.40;99.90;;;;;;5091162;28;20153;-63
2021/12/05 11:35:54;;;;;;;2.78;2.22;;;-7.40;99.90;;;;;;5092670;28;20020;-63
2021/12/05 11:38:29;;;;;;;4.78;2.40;;;-7.40;99.90;;;;;;5092483;28;20024;-62
2021/12/05 11:41:07;;;;;;;5.95;2.28;;;-7.40;99.90;;;;;;5092259;28;20472;-63
2021/12/05 11:43:45;;;;;;;7.38;2.58;;;-7.40;99.90;;;;;;5092458;28;20031;-62
2021/12/05 11:46:20;;;;;;;3.50;2.25;;;-7.30;99.90;;;;;;5092376;28;20484;-63
2021/12/05 11:48:55;;;;;;;4.20;2.30;;;-7.30;99.90;;;;;;5092277;28;20064;-62
2021/12/05 11:51:34;;;;;;;6.30;2.60;;;-7.30;99.90;;;;;;5091432;28;20544;-63
2021/12/05 11:54:12;;;;;;;3.60;2.58;;;-7.30;99.90;;;;;;5092064;28;20111;-63
2021/12/05 11:56:46;;;;;;;4.05;2.40;;;-7.30;99.90;;;;;;5092499;28;20035;-63
2021/12/05 11:59:28;;;;;;;6.88;2.55;;;-7.40;99.90;;;;;;5092102;28;20040;-63
2021/12/05 12:02:15;;;;;;;2.97;2.35;;;-7.40;99.90;;;;;;5092306;28;20101;-63
2021/12/05 12:05:07;;;;;;;5.28;2.40;;;-7.40;99.90;;;;;;5092227;28;20368;-63
2021/12/05 12:07:49;;;;;;;3.47;2.25;;;-7.40;99.90;;;;;;5091614;28;20484;-62
2021/12/05 12:10:18;;;;;;;2.80;2.38;;;-7.30;99.90;;;;;;5092157;28;20032;-62
2021/12/05 12:13:06;;;;;;;5.35;2.35;;;-7.30;99.90;;;;;;5092172;28;20027;-63
2021/12/05 12:15:33;;;;;;;4.80;2.88;;;-7.40;99.90;;;;;;5092220;28;20024;-63
2021/12/05 12:18:08;;;;;;;4.80;2.85;;;-7.30;99.90;;;;;;5092127;28;20027;-62
2021/12/05 12:20:38;;;;;;;4.60;2.50;;;-7.40;99.90;;;;;;5091952;28;20505;-62
2021/12/05 12:23:05;;;;;;;5.78;2.47;;;-7.30;99.90;;;;;;5091847;28;20024;-62
2021/12/05 12:25:35;;;;;;;5.22;2.70;;;-7.40;99.90;;;;;;5091898;28;20107;-62
2021/12/05 12:28:01;;;;;;;3.55;2.53;;;-7.40;99.90;;;;;;5091604;28;20024;-63
2021/12/05 12:30:30;;;;;;;2.83;2.22;;;-6.80;99.90;;;;;;5092065;28;20032;-62
2021/12/05 12:33:02;;;;;;;5.78;2.53;;;-6.00;99.90;;;;;;5094113;28;20028;-63
2021/12/05 12:35:32;;;;;;;5.00;2.53;;;-5.30;99.90;;;;;;5098560;28;20457;-63
2021/12/05 12:38:14;;;;;;;4.18;2.17;;;-5.70;99.90;;;;;;5090726;28;20016;-64
2021/12/05 12:41:03;;;;;;;3.67;2.53;;;-5.70;99.90;;;;;;5093960;28;20032;-63
2021/12/05 12:44:05;;;;;;;5.55;2.63;;;-4.80;99.90;;;;;;5091823;28;20024;-63
2021/12/05 12:46:54;;;;;;;5.28;2.42;;;-5.70;99.90;;;;;;5069796;28;20511;-63
2021/12/05 12:49:22;;;;;;;4.70;2.47;;;-6.20;99.90;;;;;;5091600;28;20043;-63
2021/12/05 12:51:47;;;;;;;4.95;2.30;;;-6.40;99.90;;;;;;5091515;28;20031;-63
2021/12/05 12:54:48;;;;;;;2.15;1.95;;;-6.60;99.90;;;;;;5091134;28;20103;-63
2021/12/05 12:57:18;;;;;;;3.95;2.00;;;-6.80;99.90;;;;;;5088614;28;20063;-62
2021/12/05 12:59:44;;;;;;;;;;;-7.00;99.90;;;;;;5091049;28;20530;-62
2021/12/05 13:02:29;;;;;;;3.47;2.00;;;-7.10;99.90;;;;;;5091889;28;19910;-62
2021/12/05 13:05:17;;;;;;;4.13;1.92;;;-7.20;99.90;;;;;;5094931;28;20110;-62
2021/12/05 13:10:43;;;;;;;4.10;2.28;;;-4.30;99.90;;;;;;5095223;28;20035;-63
2021/12/05 13:13:25;;;;;;;3.38;2.10;;;-3.40;99.90;;;;;;5100908;28;20103;-62
2021/12/05 13:16:11;;;;;;;5.38;2.15;;;-4.50;99.90;;;;;;5102201;28;20019;-63
2021/12/05 13:18:40;;;;;;;2.15;1.88;;;-5.30;99.90;;;;;;5090317;28;20032;-63
2021/12/05 13:21:13;;;;;;;2.08;1.90;;;-5.90;99.90;;;;;;5094311;28;20054;-63
2021/12/05 13:23:40;;;;;;;3.00;2.10;;;-6.20;99.90;;;;;;5093243;28;20013;-63
2021/12/05 13:26:19;;;;;;;2.92;2.25;;;-6.40;99.90;;;;;;5094171;28;20442;-63
2021/12/05 13:28:50;;;;;;;3.53;2.17;;;-6.50;99.90;;;;;;5094140;28;20109;-63
2021/12/05 13:31:30;;;;;;;2.83;1.77;;;-6.70;99.90;;;;;;5094539;28;20065;-62
2021/12/05 13:34:30;;;;;;;3.97;2.30;;;-6.70;99.90;;;;;;5094053;28;20012;-63
2021/12/05 13:37:18;;;;;;;2.95;2.05;;;-6.80;99.90;;;;;;5094046;28;20028;-63
2021/12/05 13:39:48;;;;;;;2.65;2.00;;;-7.00;99.90;;;;;;5093830;28;20480;-63
2021/12/05 13:42:42;;;;;;;4.72;2.63;;;-7.20;99.90;;;;;;5094102;28;20438;-63
2021/12/05 13:45:16;;;;;;;3.20;2.33;;;-7.10;99.90;;;;;;5111944;28;20026;-63
2021/12/05 13:47:42;;;;;;;5.97;2.50;;;-7.20;99.90;;;;;;5105894;27;20020;-63
2021/12/05 13:50:29;;;;;;;3.92;2.40;;;-7.20;99.90;;;;;;5094016;28;20035;-63
2021/12/05 13:53:05;;;;;;;3.97;2.60;;;-7.30;99.90;;;;;;5113417;28;20106;-63
2021/12/05 13:55:46;;;;;;;5.20;2.40;;;-7.30;99.90;;;;;;5114794;28;20047;-63
2021/12/05 13:58:20;;;;;;;5.22;2.53;;;-7.40;99.90;;;;;;5114620;28;20076;-63
2021/12/05 14:00:51;;;;;;;5.80;2.42;;;-7.40;99.90;;;;;;5114463;28;20046;-63
2021/12/05 14:03:54;;;;;;;5.03;2.88;;;-7.50;99.90;;;;;;5115055;28;20019;-63
2021/12/05 14:06:24;;;;;;;6.03;2.75;;;-7.50;99.90;;;;;;5109822;28;20047;-64
2021/12/05 14:08:52;;;;;;;3.53;2.22;;;-7.50;99.90;;;;;;5104135;28;20036;-63
2021/12/05 14:11:18;;;;;;;4.32;2.33;;;-7.60;99.90;;;;;;5114527;28;20375;-63
2021/12/05 14:13:44;;;;;;;4.78;2.50;;;-7.70;99.90;;;;;;5113369;28;20066;-63
2021/12/05 14:16:10;;;;;;;4.63;2.60;;;-7.80;99.90;;;;;;5114204;28;20506;-64
2021/12/05 14:18:36;;;;;;;4.28;2.63;;;-7.80;99.90;;;;;;5113080;28;20028;-64
2021/12/05 14:21:17;;;;;;;5.47;2.58;;;-7.80;99.90;;;;;;5114049;28;20034;-63
2021/12/05 14:23:51;;;;;;;5.45;2.70;;;-7.80;99.90;;;;;;5114224;27;20022;-63
2021/12/05 14:26:19;;;;;;;4.82;2.50;;;-7.80;99.90;;;;;;5114398;28;20024;-63
2021/12/05 14:29:04;;;;;;;4.03;2.58;;;-7.80;99.90;;;;;;5114068;28;20031;-63
2021/12/05 14:31:35;;;;;;;2.42;2.22;;;-7.90;99.90;;;;;;5114120;28;20019;-63
2021/12/05 14:34:01;;;;;;;3.78;2.25;;;-8.00;99.90;;;;;;5113830;28;20023;-63
2021/12/05 14:36:34;;;;;;;2.83;2.15;;;-8.10;99.90;;;;;;5113973;28;20061;-63
2021/12/05 14:39:15;;;;;;;3.63;2.42;;;-8.20;99.90;;;;;;5113822;28;20322;-63
2021/12/05 14:41:43;;;;;;;5.70;2.05;;;-8.20;99.90;;;;;;5114108;28;20024;-63
2021/12/05 14:44:09;;;;;;;5.78;2.85;;;-8.10;99.90;;;;;;5113602;28;20395;-63
2021/12/05 14:46:58;;;;;;;7.93;3.05;;;-8.10;99.90;;;;;;5113941;28;20024;-63
2021/12/05 14:49:29;;;;;;;6.25;2.67;;;-8.10;99.90;;;;;;5096629;28;20232;-63
2021/12/05 14:51:55;;;;;;;4.20;2.38;;;-8.10;99.90;;;;;;5092676;28;20028;-63
2021/12/05 14:54:28;;;;;;;3.35;2.67;;;-5.80;99.90;;;;;;5092800;28;20379;-62
2021/12/05 14:56:55;;;;;;;3.92;2.70;;;-4.60;99.90;;;;;;5095543;28;20039;-63
2021/12/05 14:59:22;;;;;;;3.50;2.50;;;-5.20;99.90;;;;;;5092911;28;20123;-63
2021/12/05 15:01:53;;;;;;;3.50;2.25;;;-5.80;99.90;;;;;;5093465;28;20024;-63
2021/12/05 15:04:22;;;;;;;3.40;2.28;;;-6.20;99.90;;;;;;5093052;28;20081;-63
2021/12/05 15:06:49;;;;;;;3.05;2.13;;;-6.60;99.90;;;;;;5093366;28;20032;-63
2021/12/05 15:09:32;;;;;;;3.08;2.30;;;-6.80;99.90;;;;;;5092757;28;20064;-63
2021/12/05 15:12:16;;;;;;;5.57;2.55;;;-6.80;99.90;;;;;;5092893;28;20106;-63
2021/12/05 15:14:44;;;;;;;3.15;2.38;;;-6.90;99.90;;;;;;5092886;28;20016;-63
2021/12/05 15:17:12;;;;;;;3.03;2.45;;;-7.00;99.90;;;;;;5092805;28;20434;-68
2021/12/05 15:19:41;;;;;;;3.05;2.20;;;-7.10;99.90;;;;;;5092741;28;20020;-64
2021/12/05 15:22:09;;;;;;;2.83;2.10;;;-7.10;99.90;;;;;;5092482;28;20024;-63
2021/12/05 15:24:35;;;;;;;3.45;1.92;;;-7.20;99.90;;;;;;5092383;28;20028;-64
2021/12/05 15:27:03;;;;;;;4.20;2.30;;;-7.20;99.90;;;;;;5092726;28;20074;-64
2021/12/05 15:29:30;;;;;;;4.63;2.15;;;-7.20;99.90;;;;;;5092618;28;20032;-64
2021/12/05 15:31:56;;;;;;;3.33;2.10;;;-7.20;99.90;;;;;;5092599;28;20395;-63
2021/12/05 15:34:30;;;;;;;4.88;2.47;;;-7.20;99.90;;;;;;5092671;28;20024;-63
2021/12/05 15:36:59;;;;;;;2.33;2.13;;;-7.20;99.90;;;;;;5091256;28;20016;-63
2021/12/05 15:39:29;;;;;;;4.15;2.28;;;-7.30;99.90;;;;;;5092383;28;20024;-63
2021/12/05 15:41:57;;;;;;;3.08;2.25;;;-7.40;99.90;;;;;;5092283;28;20103;-63
2021/12/05 15:44:33;;;;;;;3.65;1.90;;;-7.40;99.90;;;;;;5092375;28;20032;-63
2021/12/05 15:47:12;;;;;;;3.65;2.00;;;-7.40;99.90;;;;;;5091010;28;20027;-63
2021/12/05 15:50:11;;;;;;;3.83;1.63;;;-7.40;99.90;;;;;;5091983;28;20075;-63
2021/12/05 15:52:57;;;;;;;2.70;2.05;;;-7.40;99.90;;;;;;5089252;28;20496;-63
2021/12/05 15:55:32;;;;;;;2.58;2.33;;;-7.40;99.90;;;;;;5092269;28;20570;-64
2021/12/05 15:58:07;;;;;;;2.25;2.00;;;-7.30;99.90;;;;;;5092076;28;20026;-65
2021/12/05 16:00:41;;;;;;;2.63;2.00;;;-7.20;99.90;;;;;;5092000;28;20051;-65
2021/12/05 16:03:13;;;;;;;4.38;3.15;;;-7.20;99.90;;;;;;5091967;28;20103;-64
2021/12/05 16:05:41;;;;;;;8.50;6.90;;;-7.20;99.90;;;;;;5092084;28;20441;-65
2021/12/05 16:08:13;;;;;;;8.32;6.15;;;-7.30;99.90;;;;;;5091886;28;20111;-64
2021/12/05 16:10:42;;;;;;;7.32;3.22;;;-7.30;99.90;;;;;;5091942;28;20054;-64
2021/12/05 16:13:13;;;;;;;9.13;3.22;;;-7.40;99.90;;;;;;5091970;28;20020;-67
2021/12/05 16:15:44;;;;;;;6.95;3.08;;;-7.40;99.90;;;;;;5091994;28;20031;-64
2021/12/05 16:18:10;;;;;;;9.07;2.67;;;-5.20;99.90;;;;;;5092019;28;20360;-64
2021/12/05 16:20:40;;;;;;;3.85;2.22;;;-4.00;99.90;;;;;;5094477;28;20050;-63
2021/12/05 16:23:06;;;;;;;2.60;1.92;;;-4.90;99.90;;;;;;5112741;28;20020;-63
2021/12/05 16:25:35;;;;;;;5.13;2.17;;;-5.80;99.90;;;;;;5114586;28;20494;-63
2021/12/05 16:28:03;;;;;;;2.95;1.98;;;-6.50;99.90;;;;;;5100670;28;20019;-63
2021/12/05 16:30:33;;;;;;;2.08;1.80;;;-6.90;99.90;;;;;;5122901;28;20036;-63
2021/12/05 16:33:02;;;;;;;2.38;1.90;;;-7.20;99.90;;;;;;5124969;28;20039;-63
2021/12/05 16:35:37;;;;;;;3.47;2.00;;;-7.50;99.90;;;;;;5114881;28;20509;-63
2021/12/05 16:38:24;;;;;;;3.50;2.70;;;-7.60;99.90;;;;;;5128977;27;20076;-63
2021/12/05 16:41:28;;;;;;;2.65;2.10;;;-7.80;99.90;;;;;;5116303;28;20024;-63
2021/12/05 16:44:19;;;;;;;2.20;2.00;;;-7.90;99.90;;;;;;5110288;28;20471;-63
2021/12/05 16:46:50;;;;;;;2.05;1.83;;;-7.80;99.90;;;;;;5116126;28;20035;-63
2021/12/05 16:49:28;;;;;;;2.42;2.08;;;-7.90;99.90;;;;;;5115663;27;20046;-63
2021/12/05 16:51:58;;;;;;;2.88;2.17;;;-8.10;99.90;;;;;;5116067;28;20024;-63
2021/12/05 16:54:42;;;;;;;3.08;2.33;;;-8.30;99.90;;;;;;5116435;28;20019;-63
2021/12/05 16:57:10;;;;;;;4.35;2.10;;;-8.50;99.90;;;;;;5115876;28;20368;-63
2021/12/05 16:59:42;;;;;;;3.03;1.90;;;-8.50;99.90;;;;;;5114490;28;20047;-63
2021/12/05 17:02:16;;;;;;;2.50;1.80;;;-8.70;99.90;;;;;;5115587;28;20023;-63
2021/12/05 17:04:58;;;;;;;1.90;1.70;;;-8.90;99.90;;;;;;5114569;28;20069;-63
2021/12/05 17:07:41;;;;;;;2.75;1.90;;;-9.10;99.90;;;;;;5105429;28;20028;-63
2021/12/05 17:10:25;;;;;;;3.33;1.65;;;-9.10;99.90;;;;;;5095248;28;20117;-63
2021/12/05 17:12:56;;;;;;;2.47;1.70;;;-9.30;99.80;;;;;;5095195;28;20035;-62
2021/12/05 17:15:29;;;;;;;4.07;2.13;;;-9.40;99.70;;;;;;5095174;28;20107;-62
2021/12/05 17:18:04;;;;;;;2.13;1.85;;;-9.40;99.70;;;;;;5095261;28;20024;-63
2021/12/05 17:20:43;;;;;;;3.80;1.80;;;-9.40;99.90;;;;;;5095085;28;20032;-62
2021/12/05 17:23:19;;;;;;;2.00;1.90;;;-6.50;99.90;;;;;;5094831;28;20036;-62
2021/12/05 17:25:48;;;;;;;7.63;3.58;;;-6.90;99.90;;;;;;5095155;28;20032;-62
2021/12/05 17:28:39;;;;;;;5.28;2.63;;;-7.70;99.90;;;;;;5094811;28;20043;-62
2021/12/05 17:31:08;;;;;;;7.53;2.90;;;-8.30;99.90;;;;;;5087015;28;20079;-62
2021/12/05 17:33:37;;;;;;;3.97;2.38;;;-8.70;99.90;;;;;;5095193;28;20039;-62
2021/12/05 17:36:23;;;;;;;3.08;2.20;;;-9.00;99.90;;;;;;5094809;28;20173;-62
2021/12/05 17:38:52;;;;;;;3.22;2.03;;;-9.20;99.70;;;;;;5095058;28;20028;-62
2021/12/05 17:41:19;;;;;;;2.30;1.90;;;-9.40;99.10;;;;;;5093080;28;20479;-62
2021/12/05 17:43:45;;;;;;;2.47;1.77;;;-9.50;97.70;;;;;;5094576;28;20059;-62
2021/12/05 17:46:11;;;;;;;2.47;1.90;;;-9.60;97.10;;;;;;5094392;28;20101;-62
2021/12/05 17:48:38;;;;;;;5.10;1.95;;;-9.70;97.10;;;;;;5094456;28;20042;-62
2021/12/05 17:51:05;;;;;;;3.72;2.30;;;-9.20;99.90;;;;;;5094464;28;20036;-62
2021/12/05 17:53:36;;;;;;;5.25;2.58;;;-8.50;99.90;;;;;;5094601;28;20020;-62
2021/12/05 17:56:10;;;;;;;3.75;2.47;;;-8.80;99.90;;;;;;5093787;28;20097;-63
2021/12/05 17:58:55;;;;;;;6.95;3.58;;;-9.20;99.90;;;;;;5094750;28;20039;-64
2021/12/05 18:04:06;;;;;;;3.97;3.35;;;-8.90;99.90;;;;;;5094161;28;20117;-63
2021/12/05 18:06:33;;;;;;;4.15;2.28;;;-9.40;99.80;;;;;;5094413;28;20031;-63
2021/12/05 18:09:00;;;;;;;29.45;11.15;;;-9.80;97.40;;;;;;5094377;28;20032;-63
2021/12/05 18:11:25;;;;;;;22.00;7.35;;;-9.90;96.40;;;;;;5094344;28;20057;-62
2021/12/05 18:13:56;;;;;;;5.25;3.55;;;-10.10;96.10;;;;;;5094333;28;20032;-62
2021/12/05 18:16:24;;;;;;;2.72;2.30;;;-10.10;95.80;;;;;;5094145;28;20034;-62
2021/12/05 18:18:52;;;;;;;3.75;2.80;;;-10.20;94.10;;;;;;5094100;28;20020;-62
2021/12/05 18:21:20;;;;;;;2.83;2.50;;;-10.30;92.90;;;;;;5093558;28;20432;-62
2021/12/05 18:23:47;;;;;;;3.22;2.55;;;-10.50;92.10;;;;;;5093831;28;20020;-62
2021/12/05 18:26:13;;;;;;;2.47;2.28;;;-10.60;91.70;;;;;;5093528;28;20510;-62
2021/12/05 18:28:40;;;;;;;3.13;2.55;;;-10.80;91.70;;;;;;5093723;28;20107;-62
2021/12/05 18:31:09;;;;;;;2.92;2.30;;;-10.80;92.00;;;;;;5093643;28;20054;-63
2021/12/05 18:33:35;;;;;;;3.55;2.15;;;-10.80;92.30;;;;;;5093641;28;20035;-63
2021/12/05 18:36:03;;;;;;;3.80;2.35;;;-10.90;92.60;;;;;;5093442;28;20031;-62
2021/12/05 18:38:29;;;;;;;2.30;2.10;;;-10.90;92.50;;;;;;5092335;28;20028;-62
2021/12/05 18:40:58;;;;;;;2.65;2.40;;;-10.90;92.00;;;;;;5093657;28;20047;-63
2021/12/05 18:43:28;;;;;;;3.13;2.38;;;-11.00;91.10;;;;;;5092124;28;20063;-62
2021/12/05 18:45:55;;;;;;;4.75;2.42;;;-11.10;90.10;;;;;;5093639;28;20025;-62
2021/12/05 18:48:21;;;;;;;2.80;2.55;;;-11.20;89.60;;;;;;5093190;28;20499;-62
2021/12/05 18:50:48;;;;;;;3.30;2.55;;;-11.30;89.20;;;;;;5093505;28;20035;-62
2021/12/05 18:53:16;;;;;;;2.58;1.83;;;-11.40;89.70;;;;;;5093211;28;20486;-63